Lake In The Hills, Illinois
Current Conditions -  °F | °C
As of 4:52 PM on Monday 20 Oct 2014 (Local Time) from KDPA Reporting Station
Overcast Overcast  
Wind Chill: 60°   Ceiling: 5500
Heat Index: 60°   Visibility: 10mi
Dew Point: 42°   Wind: 14mph
Humidity: 51%   Direction: 350°N
Pressure: 29.91"   Gusts: NA
Location:  42.18°N, 88.33°W
Report Text: KDPA 202152Z 35012KT 10SM OVC055 16/06 A2991 RMK AO2 SLP129 T01560056
Loading
Personal Weather Stations






























Interactive Weather Map
Tropical Storm Tracking
New forecast layout! Learn more

10-Day Weather Forecast

Advertisements
Track Severe Weather on mobile